createdAt,value
2019-01-13T00:29:55.807Z,4.60
2019-01-13T00:59:39.584Z,4.70
2019-01-13T13:28:32.936Z,8.40
2019-01-13T14:20:56.681Z,8.40
2019-01-13T18:27:22.277Z,7.30
2019-01-13T19:07:11.436Z,6.80
2019-01-13T19:33:28.656Z,6.70
2019-01-13T19:49:34.892Z,6.90
2019-01-13T19:52:42.240Z,6.90
2019-01-13T21:53:50.079Z,5.70
2019-01-13T22:03:13.531Z,5.50
2019-01-13T22:05:43.984Z,5.40
2019-01-13T22:08:14.528Z,5.30
2019-01-13T22:10:45.093Z,5.00
2019-01-13T22:13:15.486Z,5.00
2019-01-13T22:15:45.979Z,4.90
2019-01-13T22:18:16.532Z,4.80
2019-01-13T22:20:47.127Z,4.70
2019-01-13T22:23:17.619Z,4.60
2019-01-13T22:25:48.061Z,4.60
2019-01-13T22:28:18.537Z,4.60
2019-01-13T22:30:48.976Z,4.50
2019-01-13T22:33:19.743Z,4.50
2019-01-13T22:35:50.269Z,4.50
2019-01-13T22:38:20.801Z,4.50
2019-01-13T22:40:51.223Z,4.60
2019-01-13T22:43:21.664Z,4.50
2019-01-13T22:45:52.169Z,4.60
2019-01-13T22:48:22.695Z,4.50
2019-01-13T22:50:53.200Z,4.60
2019-01-13T22:53:23.786Z,4.60
2019-01-13T22:55:54.295Z,4.60
2019-01-13T22:58:24.809Z,4.70
2019-01-13T23:01:35.724Z,4.70
2019-01-13T23:04:10.856Z,4.70
2019-01-13T23:06:41.418Z,4.70
2019-01-13T23:09:12.931Z,4.70
2019-01-13T23:11:43.308Z,4.80
2019-01-13T23:14:14.758Z,4.90
2019-01-13T23:16:45.052Z,5.00
2019-01-13T23:19:15.546Z,5.10
2019-01-13T23:21:46.915Z,5.10
2019-01-13T23:24:17.339Z,5.10
2019-01-13T23:26:47.747Z,5.10
2019-01-13T23:29:18.206Z,5.10
2019-01-13T23:31:48.657Z,5.10
2019-01-13T23:34:19.125Z,5.20
2019-01-13T23:36:49.597Z,5.10
2019-01-13T23:39:19.934Z,5.20
2019-01-13T23:41:50.392Z,5.30
2019-01-13T23:44:20.945Z,5.30
2019-01-13T23:46:51.737Z,5.40
2019-01-13T23:49:22.435Z,5.30
2019-01-13T23:51:52.997Z,5.40
2019-01-13T23:54:23.517Z,5.30
2019-01-13T23:56:53.841Z,5.40
2019-01-13T23:59:24.371Z,5.40
